Time;durP1;ratioP1;P1;durP2;ratioP2;P2;SDS_P1;SDS_P2;PMS_P1;PMS_P2;Temp;Humidity;BMP_temperature;BMP_pressure;BME280_temperature;BME280_humidity;BME280_pressure;Samples;Min_cycle;Max_cycle;Signal;HPM_P1;HPM_P2
2021/11/21 00:11:12;;;;;;;;;;;;;;;;;;;;;
2021/11/21 00:18:06;;;;;;;3.13;1.65;;;;;;;4.63;70.93;92628.00;4788317;30;20134;-96
2021/11/21 00:28:16;;;;;;;2.85;1.60;;;;;;;4.55;71.09;92622.22;4943138;28;20129;-94
2021/11/21 00:31:11;;;;;;;;;;;;;;;;;;;;;
2021/11/21 00:34:16;;;;;;;;;;;;;;;;;;;;;
2021/11/21 00:37:28;;;;;;;;;;;;;;;;;;;;;
2021/11/21 00:44:33;;;;;;;;;;;;;;;;;;;;;
2021/11/21 00:47:46;;;;;;;;;;;;;;;;;;;;;
2021/11/21 00:54:04;;;;;;;;;;;;;;;;;;;;;
2021/11/21 00:57:32;;;;;;;;;;;;;;;;;;;;;
2021/11/21 01:04:00;;;;;;;;;;;;;;;;;;;;;
2021/11/21 01:07:27;;;;;;;;;;;;;;;;;;;;;
2021/11/21 01:14:01;;;;;;;3.33;1.70;;;;;;;4.40;70.60;92564.28;4957713;28;20047;-93
2021/11/21 01:20:47;;;;;;;;;;;;;;;;;;;;;
2021/11/21 01:24:12;;;;;;;;;;;;;;;;;;;;;
2021/11/21 01:27:09;;;;;;;4.53;1.63;;;;;;;4.46;71.13;92558.09;5027262;28;20041;-93
2021/11/21 01:30:29;;;;;;;;;;;;;;;;;;;;;
2021/11/21 01:33:43;;;;;;;;;;;;;;;;;;;;;
2021/11/21 01:36:58;;;;;;;;;;;;;;;;;;;;;
2021/11/21 01:39:45;;;;;;;;;;;;;;;;;;;;;
2021/11/21 01:42:52;;;;;;;2.95;1.52;;;;;;;4.33;70.16;92531.56;5003512;28;20042;-94
2021/11/21 01:46:27;;;;;;;2.75;1.55;;;;;;;4.34;70.16;92533.13;5011190;28;20042;-93
2021/11/21 01:49:39;;;;;;;3.25;1.42;;;;;;;4.25;70.89;92526.03;5001269;28;20044;-94
2021/11/21 01:56:47;;;;;;;2.35;1.35;;;;;;;4.15;70.48;92521.56;4988347;28;20074;-93
2021/11/21 02:00:01;;;;;;;;;;;;;;;;;;;;;
2021/11/21 02:03:12;;;;;;;2.08;1.25;;;;;;;4.17;69.86;92506.56;5036580;28;20048;-93
2021/11/21 02:06:39;;;;;;;2.05;1.30;;;;;;;4.13;70.25;92506.25;5018095;28;20506;-93
2021/11/21 02:09:58;;;;;;;;;;;;;;;;;;;;;
2021/11/21 02:16:02;;;;;;;3.15;1.50;;;;;;;4.08;70.12;92495.84;5005980;28;20081;-93
2021/11/21 02:19:19;;;;;;;;;;;;;;;;;;;;;
2021/11/21 02:22:36;;;;;;;;;;;;;;;;;;;;;
2021/11/21 02:25:33;;;;;;;4.05;1.77;;;;;;;4.06;70.16;92497.91;5015791;28;20048;-93
2021/11/21 02:31:30;;;;;;;;;;;;;;;;;;;;;
2021/11/21 02:34:46;;;;;;;2.35;1.40;;;;;;;4.06;70.50;92484.16;4996553;28;20100;-94
2021/11/21 02:37:43;;;;;;;;;;;;;;;;;;;;;
2021/11/21 02:40:52;;;;;;;;;;;;;;;;;;;;;
2021/11/21 02:44:01;;;;;;;;;;;;;;;;;;;;;
2021/11/21 02:47:34;;;;;;;;;;;;;;;;;;;;;
2021/11/21 02:50:57;;;;;;;;;;;;;;;;;;;;;
2021/11/21 02:54:36;;;;;;;;;;;;;;;;;;;;;
2021/11/21 02:57:55;;;;;;;;;;;;;;;;;;;;;
2021/11/21 03:00:43;;;;;;;2.03;1.20;;;;;;;3.87;70.85;92453.44;4986296;28;20046;-93
2021/11/21 03:03:33;;;;;;;2.05;1.23;;;;;;;3.85;71.96;92450.31;4992578;28;20056;-94
2021/11/21 03:07:02;;;;;;;2.22;1.30;;;;;;;3.94;72.45;92472.16;4982096;28;20121;-94
2021/11/21 03:10:00;;;;;;;;;;;;;;;;;;;;;
2021/11/21 03:12:53;;;;;;;;;;;;;;;;;;;;;
2021/11/21 03:22:42;;;;;;;;;;;;;;;;;;;;;
2021/11/21 03:25:27;;;;;;;;;;;;;;;;;;;;;
2021/11/21 03:28:06;;;;;;;;;;;;;;;;;;;;;
2021/11/21 03:31:22;;;;;;;;;;;;;;;;;;;;;
2021/11/21 03:34:00;;;;;;;;;;;;;;;;;;;;;
2021/11/21 03:36:56;;;;;;;2.85;1.60;;;;;;;3.69;73.82;92435.66;5000799;28;20391;-93
2021/11/21 03:43:40;;;;;;;3.17;1.38;;;;;;;3.61;74.06;92420.56;4969209;28;20047;-94
2021/11/21 03:46:49;;;;;;;2.45;1.35;;;;;;;3.51;73.95;92405.72;4975363;28;20073;-94
2021/11/21 03:49:51;;;;;;;3.25;1.73;;;;;;;3.61;73.54;92423.94;4994560;28;20037;-94
2021/11/21 03:53:48;;;;;;;2.30;1.48;;;;;;;3.57;73.96;92401.38;4960923;28;20042;-92
2021/11/21 03:57:27;;;;;;;;;;;;;;;;;;;;;
2021/11/21 04:00:47;;;;;;;;;;;;;;;;;;;;;
2021/11/21 04:03:57;;;;;;;;;;;;;;;;;;;;;
2021/11/21 04:07:22;;;;;;;;;;;;;;;;;;;;;
2021/11/21 04:10:48;;;;;;;2.63;1.50;;;;;;;3.40;73.84;92376.38;5009386;28;20034;-94
2021/11/21 04:14:25;;;;;;;4.65;1.45;;;;;;;3.45;73.80;92391.94;4989957;28;20033;-93
2021/11/21 04:17:38;;;;;;;;;;;;;;;;;;;;;
2021/11/21 04:24:44;;;;;;;4.20;2.10;;;;;;;3.46;73.94;92379.78;5019101;28;20570;-94
2021/11/21 04:28:12;;;;;;;2.83;1.52;;;;;;;3.37;74.69;92365.72;4928104;29;20652;-93
2021/11/21 04:30:55;;;;;;;;;;;;;;;;;;;;;
2021/11/21 04:38:05;;;;;;;4.35;2.10;;;;;;;3.43;76.62;92375.88;4932588;28;20490;-94
2021/11/21 04:41:10;;;;;;;;;;;;;;;;;;;;;
2021/11/21 04:44:16;;;;;;;3.60;1.85;;;;;;;3.31;76.19;92352.75;5000377;28;20055;-96
2021/11/21 04:47:33;;;;;;;2.47;1.52;;;;;;;3.38;75.97;92362.91;5002292;28;20046;-93
2021/11/21 04:54:09;;;;;;;;;;;;;;;;;;;;;
2021/11/21 04:57:32;;;;;;;;;;;;;;;;;;;;;
2021/11/21 05:00:49;;;;;;;;;;;;;;;;;;;;;
2021/11/21 05:07:23;;;;;;;2.70;1.60;;;;;;;3.35;75.97;92347.84;5021675;28;20029;-95
2021/11/21 05:10:11;;;;;;;5.90;1.80;;;;;;;3.27;75.92;92340.56;4984743;28;20045;-93
2021/11/21 05:13:34;;;;;;;3.22;1.65;;;;;;;3.27;75.86;92332.78;5016387;28;20068;-93
2021/11/21 05:16:59;;;;;;;;;;;;;;;;;;;;;
2021/11/21 05:20:17;;;;;;;3.47;1.70;;;;;;;3.32;75.81;92332.81;5015313;28;20053;-94
2021/11/21 05:29:32;;;;;;;3.47;1.80;;;;;;;3.33;75.49;92327.41;5002875;28;20038;-93
2021/11/21 05:32:53;;;;;;;;;;;;;;;;;;;;;
2021/11/21 05:39:39;;;;;;;3.58;1.90;;;;;;;3.33;75.07;92322.25;5019592;28;20045;-94
2021/11/21 05:42:57;;;;;;;;;;;;;;;;;;;;;
2021/11/21 05:45:51;;;;;;;;;;;;;;;;;;;;;
2021/11/21 05:49:11;;;;;;;4.55;1.80;;;;;;;3.39;75.27;92322.28;5020668;28;20041;-95
2021/11/21 05:52:15;;;;;;;3.80;2.03;;;;;;;3.41;75.42;92328.00;4968754;28;20519;-94
2021/11/21 05:55:18;;;;;;;7.00;1.70;;;;;;;3.45;75.83;92337.59;5029765;28;20474;-93
2021/11/21 06:01:18;;;;;;;3.20;1.75;;;;;;;3.28;76.40;92321.41;4976903;28;20388;-95
2021/11/21 06:03:54;;;;;;;;;;;;;;;3.36;76.38;92333.13;5018459;28;20104;-94
2021/11/21 06:07:10;;;;;;;5.22;1.85;;;;;;;3.35;76.17;92329.75;5002116;28;19917;-93
2021/11/21 06:13:51;;;;;;;;;;;;;;;;;;;;;
2021/11/21 06:16:59;;;;;;;3.35;1.75;;;;;;;3.18;76.05;92306.56;5011439;28;20046;-94
2021/11/21 06:23:10;;;;;;;3.10;1.70;;;;;;;3.30;76.34;92324.53;4966464;28;20066;-94
2021/11/21 06:29:33;;;;;;;3.95;1.73;;;;;;;3.25;76.69;92303.78;4997859;28;20082;-94
2021/11/21 06:32:34;;;;;;;;;;;;;;;;;;;;;
2021/11/21 06:35:39;;;;;;;;;;;;;;;;;;;;;
2021/11/21 06:38:56;;;;;;;4.00;1.85;;;;;;;3.20;76.93;92293.38;5012543;28;20414;-93
2021/11/21 06:42:07;;;;;;;;;;;;;;;;;;;;;
2021/11/21 06:48:06;;;;;;;3.13;1.70;;;;;;;3.26;77.14;92311.28;4990468;28;20041;-94
2021/11/21 06:50:51;;;;;;;;;;;;;;;;;;;;;
2021/11/21 06:53:57;;;;;;;2.22;1.40;;;;;;;3.82;75.63;92305.00;5022078;28;20109;-91
2021/11/21 06:56:43;;;;;;;;;;;;;;;;;;;;;
2021/11/21 06:59:27;;;;;;;3.35;1.80;;;;;;;8.42;62.15;92298.34;5020165;28;20038;-91
2021/11/21 07:02:21;;;;;;;3.30;1.80;;;;;;;10.14;57.55;92294.72;5000999;28;20124;-91
2021/11/21 07:05:25;;;;;;;3.53;1.88;;;;;;;11.97;51.55;92309.72;5021922;28;20045;-91
2021/11/21 07:08:31;;;;;;;;;;;;;;;;;;;;;
2021/11/21 07:11:22;;;;;;;;;;;;;;;;;;;;;
2021/11/21 07:14:11;;;;;;;;;;;;;;;;;;;;;
2021/11/21 07:17:15;;;;;;;3.55;1.90;;;;;;;16.87;39.29;92303.91;5017857;28;20057;-91
2021/11/21 07:20:05;;;;;;;;;;;;;;;;;;;;;
2021/11/21 07:23:13;;;;;;;;;;;;;;;;;;;;;
2021/11/21 07:26:05;;;;;;;5.03;2.00;;;;;;;19.77;32.93;92285.13;5034359;28;20487;-91
2021/11/21 07:29:27;;;;;;;;;;;;;;;;;;;;;
2021/11/21 08:01:24;;;;;;;;;;;;;;;;;;;;;
2021/11/21 08:12:05;;;;;;;;;;;;;;;;;;;;;
2021/11/21 08:15:46;;;;;;;5.70;2.90;;;;;;;23.88;23.90;92251.69;4991025;28;20149;-96
2021/11/21 08:19:10;;;;;;;;;;;;;;;;;;;;;
2021/11/21 08:22:36;;;;;;;;;;;;;;;;;;;;;
2021/11/21 08:25:38;;;;;;;5.28;2.80;;;;;;;23.48;22.94;92255.25;5022589;28;20034;-95
2021/11/21 08:32:04;;;;;;;;;;;;;;;;;;;;;
2021/11/21 08:35:16;;;;;;;;;;;;;;;;;;;;;
2021/11/21 08:38:33;;;;;;;;;;;;;;;;;;;;;
2021/11/21 08:45:01;;;;;;;4.88;2.60;;;;;;;16.75;33.96;92255.19;5001335;28;20053;-93
2021/11/21 08:48:09;;;;;;;;;;;;;;;;;;;;;
2021/11/21 08:51:37;;;;;;;6.38;2.65;;;;;;;14.16;38.63;92257.41;5014380;28;20534;-94
2021/11/21 08:54:39;;;;;;;5.10;2.58;;;;;;;12.65;42.01;92250.81;5016267;28;20053;-94
2021/11/21 09:00:52;;;;;;;;;;;;;;;;;;;;;
2021/11/21 09:07:56;;;;;;;2.85;1.80;;;;;;;10.47;46.08;92274.56;4993767;28;20133;-95
2021/11/21 09:11:19;;;;;;;;;;;;;;;;;;;;;
2021/11/21 09:14:59;;;;;;;;;;;;;;;;;;;;;
2021/11/21 09:29:07;;;;;;;5.32;2.20;;;;;;;11.43;48.05;92251.91;4993237;28;20046;-95
2021/11/21 09:32:19;;;;;;;;;;;;;;;;;;;;;
2021/11/21 09:39:09;;;;;;;;;;;;;;;;;;;;;
2021/11/21 09:42:28;;;;;;;;;;;;;;;;;;;;;
2021/11/21 09:49:15;;;;;;;4.53;2.30;;;;;;;10.93;50.98;92255.31;5020862;28;20049;-94
2021/11/21 09:52:23;;;;;;;;;;;;;;;;;;;;;
2021/11/21 09:59:29;;;;;;;;;;;;;;;;;;;;;
2021/11/21 10:03:33;;;;;;;5.45;2.85;;;;;;;12.45;52.42;92233.75;5031355;28;20040;-95
2021/11/21 10:07:10;;;;;;;;;;;;;;;;;;;;;
2021/11/21 10:25:44;;;;;;;5.05;2.88;;;;;;;11.69;57.70;92231.16;5033058;28;20068;-94
2021/11/21 10:28:38;;;;;;;6.97;3.08;;;;;;;12.00;59.24;92214.69;4990304;28;20627;-74
2021/11/21 10:31:15;;;;;;;5.93;2.88;;;;;;;12.11;57.25;92218.59;4990104;28;20057;-75
2021/11/21 10:33:47;;;;;;;7.10;3.42;;;;;;;12.48;55.96;92216.59;4976872;28;20066;-74
2021/11/21 10:36:18;;;;;;;6.45;2.97;;;;;;;12.44;55.70;92216.41;4962656;28;20037;-74
2021/11/21 10:38:55;;;;;;;5.75;2.92;;;;;;;12.09;56.67;92210.25;4985716;28;20068;-74
2021/11/21 10:41:35;;;;;;;5.97;3.00;;;;;;;11.92;56.80;92197.84;4975861;28;20030;-74
2021/11/21 10:44:04;;;;;;;5.32;2.65;;;;;;;12.29;57.12;92195.81;4992688;28;20096;-74
2021/11/21 10:46:36;;;;;;;5.53;3.13;;;;;;;12.33;57.38;92194.16;4992404;28;20034;-74
2021/11/21 10:49:30;;;;;;;6.47;3.25;;;;;;;12.37;57.54;92189.06;5003065;28;20056;-74
2021/11/21 10:51:58;;;;;;;6.13;2.88;;;;;;;11.31;60.31;92189.56;4983380;28;20066;-75
2021/11/21 10:54:34;;;;;;;7.10;3.08;;;;;;;11.56;60.40;92187.41;4989586;28;20094;-74
2021/11/21 10:57:03;;;;;;;4.82;2.70;;;;;;;11.71;59.91;92178.38;4979656;28;20058;-75
2021/11/21 10:59:36;;;;;;;6.22;3.10;;;;;;;12.30;57.97;92176.41;4991011;28;20030;-75
2021/11/21 11:02:16;;;;;;;5.45;3.03;;;;;;;12.39;59.00;92171.19;4991631;28;20035;-75
2021/11/21 11:05:02;;;;;;;7.40;3.00;;;;;;;11.97;59.43;92170.69;4990736;28;20429;-76
2021/11/21 11:07:32;;;;;;;5.88;3.25;;;;;;;12.17;58.26;92162.28;4960657;28;20519;-73
2021/11/21 11:09:58;;;;;;;6.88;3.45;;;;;;;11.87;59.76;92151.53;4974192;28;20034;-76
2021/11/21 11:12:24;;;;;;;5.05;2.70;;;;;;;11.80;60.25;92153.78;4992557;28;20436;-76
2021/11/21 11:14:52;;;;;;;6.22;3.13;;;;;;;11.86;61.16;92147.31;4992406;28;20061;-75
2021/11/21 11:17:19;;;;;;;6.28;2.92;;;;;;;12.15;60.53;92146.06;4992260;28;20030;-75
2021/11/21 11:19:45;;;;;;;6.22;2.70;;;;;;;11.59;61.52;92145.63;4974865;28;20096;-75
2021/11/21 11:22:12;;;;;;;3.92;2.40;;;;;;;11.25;61.57;92148.81;4992401;28;20029;-74
2021/11/21 11:24:41;;;;;;;5.38;2.83;;;;;;;11.54;61.08;92147.63;4959037;28;20701;-76
2021/11/21 11:27:19;;;;;;;4.55;2.40;;;;;;;11.39;61.29;92139.06;4992175;28;20101;-75
2021/11/21 11:29:48;;;;;;;5.47;3.15;;;;;;;11.95;59.97;92133.50;4992459;28;20058;-76
2021/11/21 11:32:22;;;;;;;6.93;3.00;;;;;;;12.15;59.32;92122.47;4992553;28;20646;-75
2021/11/21 11:34:48;;;;;;;8.68;3.75;;;;;;;12.03;59.16;92132.78;4990839;28;20053;-76
2021/11/21 11:37:15;;;;;;;6.25;3.45;;;;;;;12.21;58.95;92129.13;4958440;28;20384;-75
2021/11/21 11:39:44;;;;;;;4.40;2.50;;;;;;;11.72;59.69;92132.75;4990965;28;20058;-75
2021/11/21 11:42:36;;;;;;;4.57;2.33;;;;;;;11.50;60.05;92126.47;4989287;28;20034;-75
2021/11/21 11:45:09;;;;;;;5.13;2.80;;;;;;;10.98;61.48;92121.66;4989453;28;20668;-76
2021/11/21 11:47:37;;;;;;;5.85;3.00;;;;;;;11.65;60.36;92122.69;4985486;28;20093;-76
2021/11/21 11:50:07;;;;;;;4.70;2.60;;;;;;;11.55;61.08;92117.69;4991396;28;20049;-76
2021/11/21 11:52:54;;;;;;;5.43;3.00;;;;;;;11.88;59.13;92111.09;5001274;28;20045;-76
2021/11/21 11:55:22;;;;;;;6.20;3.20;;;;;;;12.13;58.81;92103.63;5006792;28;20065;-77
2021/11/21 11:57:49;;;;;;;5.60;2.83;;;;;;;11.84;61.06;92110.16;4988293;28;20049;-75
2021/11/21 12:00:32;;;;;;;8.43;3.25;;;;;;;11.61;60.71;92103.38;4991852;28;20034;-75
2021/11/21 12:02:59;;;;;;;7.32;3.10;;;;;;;11.57;61.54;92103.25;4988714;28;20956;-75
2021/11/21 12:05:35;;;;;;;5.38;2.47;;;;;;;11.34;61.46;92091.22;4973867;28;20065;-76
2021/11/21 12:08:18;;;;;;;6.00;2.60;;;;;;;11.43;62.06;92099.91;4989559;28;20423;-76
2021/11/21 12:10:49;;;;;;;5.80;2.88;;;;;;;11.82;61.92;92095.75;4989688;28;20119;-76
2021/11/21 12:13:35;;;;;;;6.18;3.25;;;;;;;11.53;61.90;92094.44;4972741;28;20534;-76
2021/11/21 12:16:15;;;;;;;5.38;2.92;;;;;;;11.40;61.67;92090.03;4972117;28;20129;-76
2021/11/21 12:19:01;;;;;;;5.53;3.13;;;;;;;11.66;60.64;92082.28;4981851;28;20044;-76
2021/11/21 12:21:32;;;;;;;6.03;2.97;;;;;;;11.19;62.18;92081.88;4985665;28;20041;-78
2021/11/21 12:23:59;;;;;;;5.15;2.80;;;;;;;11.55;60.84;92081.00;4994903;28;20488;-75
2021/11/21 12:26:37;;;;;;;7.60;3.60;;;;;;;11.81;59.48;92068.78;4991320;28;20046;-77
2021/11/21 12:29:09;;;;;;;7.35;3.03;;;;;;;11.60;59.08;92076.41;4973304;28;20039;-76
2021/11/21 12:31:41;;;;;;;8.13;3.05;;;;;;;11.41;58.25;92073.22;4991105;28;20076;-76
2021/11/21 12:34:39;;;;;;;5.57;2.95;;;;;;;11.75;56.95;92064.72;4991822;28;20502;-75
2021/11/21 12:37:26;;;;;;;5.45;3.03;;;;;;;11.88;57.62;92066.50;4991521;28;20068;-74
2021/11/21 12:40:08;;;;;;;6.80;2.88;;;;;;;11.92;57.83;92065.91;4991257;28;20042;-74
2021/11/21 12:42:36;;;;;;;5.00;2.42;;;;;;;10.65;59.12;92065.31;4990449;28;20059;-74
2021/11/21 12:45:18;;;;;;;3.97;2.10;;;;;;;10.94;58.67;92062.31;4991377;28;20029;-74
2021/11/21 12:47:46;;;;;;;3.77;2.00;;;;;;;10.51;60.06;92060.13;4992595;28;20506;-74
2021/11/21 12:50:26;;;;;;;5.07;2.83;;;;;;;10.89;60.66;92063.19;4995201;28;20281;-75
2021/11/21 12:52:55;;;;;;;5.32;2.70;;;;;;;10.80;60.37;92057.91;4977673;28;20039;-75
2021/11/21 12:55:23;;;;;;;5.13;2.63;;;;;;;11.20;59.81;92055.38;4993671;28;20492;-74
2021/11/21 12:57:54;;;;;;;11.57;3.10;;;;;;;10.78;61.47;92051.41;4993868;28;20042;-75
2021/11/21 13:00:28;;;;;;;3.97;2.38;;;;;;;10.75;62.22;92044.16;4994891;28;20511;-74
2021/11/21 13:03:02;;;;;;;8.10;3.40;;;;;;;10.95;62.03;92042.91;4993550;28;20524;-74
2021/11/21 13:05:32;;;;;;;4.07;2.50;;;;;;;10.82;61.55;92041.91;4961023;28;20121;-74
2021/11/21 13:07:59;;;;;;;6.45;2.63;;;;;;;10.82;62.70;92040.06;4993242;28;20128;-74
2021/11/21 13:10:24;;;;;;;4.53;2.53;;;;;;;11.00;62.43;92040.16;4994860;28;20037;-76
2021/11/21 13:12:54;;;;;;;6.38;3.08;;;;;;;11.08;62.49;92041.28;4978751;28;20046;-78
2021/11/21 13:15:22;;;;;;;6.32;3.05;;;;;;;11.40;61.06;92033.16;4977026;28;20034;-77
2021/11/21 13:18:13;;;;;;;6.78;2.65;;;;;;;10.52;64.17;92032.91;4995750;28;20055;-77
2021/11/21 13:20:41;;;;;;;6.18;2.92;;;;;;;10.29;64.64;92035.50;4996431;28;20526;-77
2021/11/21 13:23:10;;;;;;;5.45;3.15;;;;;;;10.74;63.71;92032.94;4996480;28;20055;-77
2021/11/21 13:25:40;;;;;;;6.70;3.53;;;;;;;10.55;64.56;92035.69;4995574;28;20033;-77
2021/11/21 13:28:28;;;;;;;6.20;3.05;;;;;;;10.31;65.21;92027.34;4996472;28;20141;-77
2021/11/21 13:31:16;;;;;;;5.80;3.25;;;;;;;9.99;65.84;92024.56;4996362;28;20034;-77
2021/11/21 13:33:58;;;;;;;7.28;3.85;;;;;;;10.19;65.67;92023.38;4996122;28;20050;-77
2021/11/21 13:36:42;;;;;;;5.82;3.10;;;;;;;10.23;65.48;92017.56;4996712;28;20403;-77
2021/11/21 13:39:17;;;;;;;6.60;3.35;;;;;;;10.41;64.98;92019.28;4978535;28;20034;-77
2021/11/21 13:42:06;;;;;;;6.57;3.47;;;;;;;10.57;64.76;92017.84;4996126;28;20050;-77
2021/11/21 13:44:37;;;;;;;6.95;3.53;;;;;;;10.60;64.25;92026.97;4996192;28;20041;-78
2021/11/21 13:47:14;;;;;;;10.63;4.07;;;;;;;10.71;61.85;92017.03;4995733;28;20057;-77
2021/11/21 13:49:50;;;;;;;7.97;3.47;;;;;;;10.91;62.10;92011.31;4995812;28;20038;-77
2021/11/21 13:52:23;;;;;;;9.00;4.53;;;;;;;10.92;61.15;92007.63;4996076;28;20085;-77
2021/11/21 13:55:00;;;;;;;13.07;4.72;;;;;;;10.96;62.00;92013.78;4978515;28;20061;-78
2021/11/21 13:57:39;;;;;;;6.85;3.20;;;;;;;10.82;62.66;92008.63;4996278;28;20038;-78
2021/11/21 14:00:15;;;;;;;7.43;3.50;;;;;;;11.05;62.12;92006.00;4995242;28;20097;-78
2021/11/21 14:02:44;;;;;;;8.75;3.47;;;;;;;11.15;61.25;92004.97;4995848;28;20054;-78
2021/11/21 14:05:12;;;;;;;7.22;3.38;;;;;;;11.43;60.64;91995.84;4978110;28;20444;-77
2021/11/21 14:07:59;;;;;;;4.63;2.80;;;;;;;11.20;61.44;92004.84;4994797;28;20117;-76
2021/11/21 14:10:29;;;;;;;8.18;3.90;;;;;;;11.17;61.71;92002.84;4995501;28;20068;-84
2021/11/21 14:13:18;;;;;;;7.30;4.10;;;;;;;10.63;65.25;92000.97;4994417;28;20030;-76
2021/11/21 14:15:44;;;;;;;6.82;3.35;;;;;;;10.30;64.91;92008.25;4968786;28;20129;-76
2021/11/21 14:18:10;;;;;;;6.63;3.60;;;;;;;10.19;65.95;92007.66;4963907;28;20137;-77
2021/11/21 14:20:54;;;;;;;7.05;3.67;;;;;;;10.20;67.76;92011.84;4978050;28;20098;-78
2021/11/21 14:23:23;;;;;;;9.65;4.07;;;;;;;9.85;68.91;92007.38;4980018;28;20049;-78
2021/11/21 14:26:01;;;;;;;8.32;4.10;;;;;;;9.96;68.92;92009.47;4994869;28;20026;-78
2021/11/21 14:28:39;;;;;;;8.00;3.97;;;;;;;9.79;69.16;92010.09;4975478;28;20450;-80
2021/11/21 14:31:07;;;;;;;9.50;4.53;;;;;;;9.66;69.62;92004.84;4979632;28;20094;-76
2021/11/21 14:33:36;;;;;;;9.80;4.38;;;;;;;9.62;69.98;92004.66;4997264;28;20487;-78
2021/11/21 14:36:17;;;;;;;9.88;4.25;;;;;;;9.57;70.51;91991.72;4994657;28;20071;-79
2021/11/21 14:39:00;;;;;;;7.93;4.50;;;;;;;9.62;70.43;92001.28;4978811;28;20389;-79
2021/11/21 14:41:29;;;;;;;;;;;;;;;9.59;70.83;91997.41;4975809;28;20133;-76
2021/11/21 14:43:55;;;;;;;8.32;4.35;;;;;;;9.60;70.13;91985.91;4987120;28;19913;-77
2021/11/21 14:46:21;;;;;;;8.85;4.88;;;;;;;9.62;71.01;91990.84;4996683;28;20547;-78
2021/11/21 14:48:52;;;;;;;8.68;4.43;;;;;;;9.61;71.10;91992.66;4995610;28;20034;-77
2021/11/21 14:51:19;;;;;;;6.88;3.85;;;;;;;9.68;70.55;91992.25;4997777;28;20039;-79
2021/11/21 14:53:46;;;;;;;8.00;4.22;;;;;;;9.66;69.53;91989.16;4998514;28;20034;-79
2021/11/21 14:56:15;;;;;;;8.05;4.30;;;;;;;9.65;69.16;91991.00;4996308;28;20081;-79
2021/11/21 14:58:51;;;;;;;8.95;4.00;;;;;;;9.54;69.19;91984.44;4992662;28;20035;-77
2021/11/21 15:01:23;;;;;;;10.25;3.88;;;;;;;9.61;69.31;91982.19;4982035;28;20124;-77
2021/11/21 15:03:50;;;;;;;9.88;3.85;;;;;;;9.62;69.49;91978.53;4976188;28;20034;-78
2021/11/21 15:06:17;;;;;;;8.98;4.05;;;;;;;9.65;69.04;91987.63;4993768;28;20117;-77
2021/11/21 15:08:46;;;;;;;10.05;4.28;;;;;;;9.64;68.97;91981.63;4976828;28;20391;-80
2021/11/21 15:11:12;;;;;;;8.45;3.80;;;;;;;9.63;68.98;91977.47;4992510;28;20022;-78
2021/11/21 15:13:38;;;;;;;7.72;4.00;;;;;;;9.64;69.23;91976.41;4996537;28;20042;-79
2021/11/21 15:16:04;;;;;;;7.07;4.00;;;;;;;9.66;68.75;91976.91;4985430;28;20516;-78
2021/11/21 15:18:30;;;;;;;6.03;3.25;;;;;;;9.63;68.91;91974.84;4997459;28;20499;-79
2021/11/21 15:20:56;;;;;;;14.88;5.38;;;;;;;9.58;69.58;91972.34;4997499;28;20097;-77
2021/11/21 15:23:21;;;;;;;12.60;6.32;;;;;;;9.52;70.76;91978.72;4990115;28;20443;-77
2021/11/21 15:25:48;;;;;;;11.65;5.22;;;;;;;9.49;71.14;91974.84;4991930;28;20105;-77
2021/11/21 15:28:14;;;;;;;10.85;5.05;;;;;;;9.41;70.96;91970.31;4991979;28;20054;-77
2021/11/21 15:30:41;;;;;;;8.30;4.72;;;;;;;9.37;70.89;91977.97;4992343;28;20077;-77
2021/11/21 15:33:06;;;;;;;8.88;5.30;;;;;;;9.36;71.56;91983.47;4992545;28;20041;-78
2021/11/21 15:35:33;;;;;;;9.23;4.97;;;;;;;9.31;71.59;91971.28;4991338;28;20463;-77
2021/11/21 15:37:59;;;;;;;10.10;5.15;;;;;;;9.29;71.42;91965.56;4992383;28;20571;-81
2021/11/21 15:40:26;;;;;;;12.60;5.68;;;;;;;9.25;71.74;91959.38;4961366;28;20120;-79
2021/11/21 15:42:52;;;;;;;10.32;5.70;;;;;;;9.25;72.04;91962.00;4982400;28;20038;-80
2021/11/21 15:45:19;;;;;;;13.48;5.35;;;;;;;9.28;71.69;91961.44;4986430;28;20045;-78
2021/11/21 15:48:04;;;;;;;12.02;4.97;;;;;;;9.27;71.82;91962.47;4995890;28;20030;-80
2021/11/21 15:50:30;;;;;;;10.43;5.22;;;;;;;9.26;72.03;91960.94;4995988;28;20404;-79
2021/11/21 15:52:55;;;;;;;28.35;14.55;;;;;;;9.15;73.27;91970.03;4979121;28;20048;-79
2021/11/21 15:55:21;;;;;;;27.50;15.00;;;;;;;9.02;74.02;91965.56;4978901;28;20042;-80
2021/11/21 15:57:48;;;;;;;11.18;5.40;;;;;;;8.82;75.01;91970.06;4990716;28;20057;-79
2021/11/21 16:00:15;;;;;;;11.20;5.30;;;;;;;8.73;75.03;91963.97;4996433;28;20114;-78
2021/11/21 16:02:41;;;;;;;9.48;5.38;;;;;;;8.72;75.17;91962.44;4987977;28;20511;-80
2021/11/21 16:05:08;;;;;;;9.38;5.63;;;;;;;8.74;75.05;91966.28;4991764;28;20026;-77
2021/11/21 16:07:39;;;;;;;11.68;5.20;;;;;;;8.75;74.93;91959.22;4972443;28;20054;-80
2021/11/21 16:10:16;;;;;;;10.10;4.78;;;;;;;8.75;74.58;91954.78;4976182;28;20098;-81
2021/11/21 16:12:43;;;;;;;8.48;5.15;;;;;;;8.83;73.90;91963.03;4991300;28;20081;-78
2021/11/21 16:15:10;;;;;;;9.63;4.85;;;;;;;8.80;74.57;91959.13;4992723;28;20097;-75
2021/11/21 16:17:36;;;;;;;11.70;5.65;;;;;;;8.70;75.52;91969.75;4994686;28;20275;-74
2021/11/21 16:20:07;;;;;;;15.15;6.22;;;;;;;8.70;75.60;91972.38;4986745;28;20564;-75
2021/11/21 16:22:33;;;;;;;23.02;10.70;;;;;;;8.58;75.46;91972.03;4993486;28;20133;-75
2021/11/21 16:24:58;;;;;;;34.20;16.73;;;;;;;8.54;75.21;91964.78;4977917;28;20117;-75
2021/11/21 16:27:24;;;;;;;15.40;8.60;;;;;;;8.55;75.31;91974.16;4995534;28;20049;-75
2021/11/21 16:29:51;;;;;;;12.60;6.32;;;;;;;8.56;75.15;91967.13;4995965;28;20460;-76
2021/11/21 16:32:17;;;;;;;9.88;5.72;;;;;;;8.55;75.75;91970.78;4995244;28;20046;-75
2021/11/21 16:34:43;;;;;;;9.60;5.10;;;;;;;8.53;75.21;91965.88;4995369;28;20060;-76
2021/11/21 16:37:10;;;;;;;9.25;4.97;;;;;;;8.54;74.80;91966.63;4976075;28;20030;-76
2021/11/21 16:39:37;;;;;;;7.25;4.03;;;;;;;8.52;74.78;91969.50;4989487;28;20023;-76
2021/11/21 16:42:04;;;;;;;7.40;4.25;;;;;;;8.48;74.84;91968.53;4993632;28;20042;-76
2021/11/21 16:44:30;;;;;;;7.38;3.90;;;;;;;8.38;75.71;91963.47;4993136;28;20117;-76
2021/11/21 16:46:57;;;;;;;34.42;17.73;;;;;;;8.41;76.04;91970.72;5001366;28;20037;-75
2021/11/21 16:49:22;;;;;;;9.07;5.07;;;;;;;8.39;76.58;91970.22;4983640;28;20041;-77
2021/11/21 16:51:48;;;;;;;9.98;4.80;;;;;;;8.35;75.92;91969.22;4993105;28;20677;-76
2021/11/21 16:54:14;;;;;;;9.13;5.10;;;;;;;8.34;76.29;91962.47;4985880;28;20042;-76
2021/11/21 16:56:39;;;;;;;8.90;4.78;;;;;;;8.33;76.39;91977.34;4977479;28;20109;-78
2021/11/21 16:59:05;;;;;;;10.60;5.03;;;;;;;8.36;76.81;91965.56;4996531;28;20400;-78
2021/11/21 17:01:36;;;;;;;72.18;31.27;;;;;;;8.39;77.04;91959.78;4997280;28;20046;-78
2021/11/21 17:04:02;;;;;;;40.03;16.33;;;;;;;8.18;78.00;91967.16;4997141;28;20113;-75
2021/11/21 17:06:29;;;;;;;47.33;21.98;;;;;;;8.10;78.33;91965.16;4990816;28;20089;-76
2021/11/21 17:08:58;;;;;;;28.23;13.13;;;;;;;8.12;77.99;91958.59;4968580;28;20038;-76
2021/11/21 17:11:25;;;;;;;18.05;9.70;;;;;;;8.16;79.61;91960.66;4992613;28;20034;-78
2021/11/21 17:13:51;;;;;;;14.15;8.50;;;;;;;8.15;79.26;91967.72;4975120;28;20045;-77
2021/11/21 17:16:17;;;;;;;12.35;6.95;;;;;;;8.16;79.30;91968.50;4991900;28;20448;-76
2021/11/21 17:18:43;;;;;;;16.55;9.00;;;;;;;8.15;79.20;91970.31;4991170;28;20093;-77
2021/11/21 17:21:08;;;;;;;16.42;8.20;;;;;;;8.16;79.58;91971.09;4987796;28;20034;-76
2021/11/21 17:23:34;;;;;;;12.02;7.30;;;;;;;8.20;80.65;91964.25;4990982;28;20038;-78
2021/11/21 17:26:02;;;;;;;14.07;7.65;;;;;;;8.14;79.97;91963.56;4992370;28;20121;-80
2021/11/21 17:28:28;;;;;;;13.80;7.68;;;;;;;8.13;79.93;91970.59;4982070;28;20026;-76
2021/11/21 17:30:55;;;;;;;12.05;6.95;;;;;;;8.01;79.93;91969.47;4989913;28;20042;-76
2021/11/21 17:33:30;;;;;;;20.13;8.00;;;;;;;7.97;80.62;91979.69;4990600;28;20411;-76
2021/11/21 17:36:00;;;;;;;16.73;8.00;;;;;;;7.93;80.36;91973.50;4994269;28;20148;-76
2021/11/21 17:38:33;;;;;;;13.13;7.93;;;;;;;7.85;82.22;91976.72;4976635;28;20041;-76
2021/11/21 17:40:59;;;;;;;;;;;;;;;7.81;82.04;91978.34;4977021;28;20484;-76
2021/11/21 17:43:25;;;;;;;13.93;7.25;;;;;;;7.83;81.69;91981.44;4994097;28;20005;-76
2021/11/21 17:45:51;;;;;;;14.20;7.55;;;;;;;7.90;81.34;91976.66;4995067;28;20042;-78
2021/11/21 17:48:21;;;;;;;19.50;10.27;;;;;;;7.90;82.00;91982.66;4993794;28;20560;-76
2021/11/21 17:50:49;;;;;;;16.30;9.35;;;;;;;7.96;83.13;91982.59;4993295;28;20042;-77
2021/11/21 17:53:15;;;;;;;11.40;6.15;;;;;;;7.92;82.18;91980.56;4993181;28;20036;-75
2021/11/21 17:55:42;;;;;;;12.07;6.18;;;;;;;7.90;83.55;91979.25;4989055;28;20063;-77
2021/11/21 17:58:08;;;;;;;16.38;8.73;;;;;;;7.87;82.87;91977.22;4987566;28;20506;-77
2021/11/21 18:00:34;;;;;;;16.58;8.52;;;;;;;7.86;82.72;91975.69;4993420;28;20035;-76
2021/11/21 18:02:59;;;;;;;12.77;7.00;;;;;;;7.86;82.22;91988.72;4977120;28;20038;-76
2021/11/21 18:05:25;;;;;;;9.00;5.43;;;;;;;7.85;82.32;91989.75;4992491;28;20030;-76
2021/11/21 18:07:50;;;;;;;10.05;5.15;;;;;;;7.85;83.94;91982.72;4992013;28;20046;-76
2021/11/21 18:10:19;;;;;;;15.15;7.53;;;;;;;7.81;84.76;91989.53;4993834;28;20041;-76
2021/11/21 18:12:47;;;;;;;13.63;5.75;;;;;;;7.81;84.89;91992.13;4994597;28;20034;-77